Aviation Digital Data Service (ADDS)

Output produced by METARs form (0325 UTC 21 September 2017)
found at http://www.aviationweather.gov/adds/metars/
 
KRAP 210311Z 2103/2124 08005KT P6SM SKC 
     FM210600 17007KT P6SM SCT120 WS020/19050KT 
     FM211500 19009KT P6SM SCT120
       
KRBG 202339Z 2100/2124 25005KT P6SM -SHRA VCTS FEW025 BKN035CB OVC060 
     FM210300 VRB03KT P6SM VCSH FEW020 BKN060 
     FM210600 00000KT P6SM SCT015 OVC025 
     FM211600 00000KT P6SM SCT015 OVC035
       
KRBL 210005Z 2100/2124 30013KT P6SM BKN100 
     FM211000 35010KT P6SM BKN250
       
TAF KRCA 210302Z 2103/2209 21009KT 9999 FEW200 QNH2972INS 
     BECMG 2104/2105 18009KT 9999 FEW200 WS020/19045KT QNH2962INS 
     BECMG 2114/2115 01009KT 9999 FEW200 QNH2966INS WND 33009KT AFT 2205 TX24/2120Z TN12/2110Z
       
KRDD 210005Z 2100/2124 32008KT P6SM FEW080 
     FM211800 36007KT P6SM BKN250
       
KRDG 202334Z 2100/2124 36003KT P6SM FEW200 
     TEMPO 2109/2111 4SM BR 
     FM211700 36007KT P6SM SCT200
       
KRDM 210120Z 2101/2124 30010KT P6SM VCSH SCT050 BKN100 
     FM210500 VRB06KT P6SM SCT070 
     FM210800 17007KT P6SM SCT100 BKN250 
     FM211800 32010KT P6SM BKN100 BKN250
       
TAF KRDR 210200Z 2102/2208 18009KT 9999 SCT100 QNH2975INS 
     BECMG 2107/2108 16009KT 9999 FEW200 WS020/18045KT QNH2976INS WND 16012KT AFT 2113 
     BECMG 2114/2115 15015G25KT 9999 FEW120 QNH2966INS 
     TEMPO 2118/2123 15020G30KT 510003 
     BECMG 2123/2124 16009KT 9999 FEW120 QNH2965INS 
     BECMG 2207/2208 18006KT 9999 FEW010 SCT080 QNH2970INS TX24/2121Z TN10/2111Z
       
KRDU 202320Z 2100/2124 VRB03KT P6SM FEW060 SCT100 SCT250 
     TEMPO 2109/2112 4SM BR SKC
       
KRIC 202320Z 2100/2124 35006KT P6SM FEW200 
     FM211500 01004KT P6SM FEW040
       
KRIL 202325Z 2100/2124 27014G23KT P6SM FEW110 
     FM210200 20008KT P6SM FEW120 FEW250 
     FM210700 17003KT P6SM SKC WS020/21030KT 
     FM211600 21012G22KT P6SM SKC 
     FM211900 23023G33KT P6SM FEW130 FEW250
       
TAF KRIV 202006Z 2020/2202 31009KT 9999 FEW030 QNH2982INS 
     BECMG 2105/2106 15006KT 9999 SCT015 QNH2985INS 
     BECMG 2107/2108 15006KT 9000 -DZ BKN015 QNH2985INS 
     BECMG 2117/2118 30009KT 9999 NSW BKN030 QNH2981INS 
     BECMG 2123/2124 31012KT 9999 SCT030 QNH2979INS TX25/2022Z TN15/2114Z
       
KRIW 202327Z 2100/2124 23008KT P6SM FEW070 BKN150 
     FM210200 25012KT P6SM SCT060 BKN080 
     FM210500 31008KT P6SM BKN060 
     FM212000 23012G20KT P6SM BKN060
       
KRKD 202320Z 2100/2124 04007KT P6SM BKN250 
     FM211100 04010G17KT P6SM SCT250 AMD LTD TO CLD VIS AND WIND
       
KRKS 202327Z 2100/2124 26010KT P6SM SCT060 BKN150 
     FM211800 21025G35KT P6SM SCT060
       
KRME 202329Z 2100/2124 31005KT P6SM SKC 
     FM211500 27007KT P6SM FEW045
       
KRNO 202320Z 2100/2124 28018G30KT P6SM -SHRA BKN050 OVC090 
     FM210600 34012G22KT P6SM BKN060 
     FM211600 35010KT 6SM -SHRA BKN040 OVC060 
     FM212000 32012G24KT P6SM VCSH BKN060 OVC100
       
KROA 202330Z 2100/2124 00000KT P6SM VCSH SCT080 
     FM210400 00000KT P6SM SCT050 
     FM211100 00000KT 4SM BR FEW020 SCT040 
     FM211200 00000KT P6SM SCT040
       
KROC 210218Z 2102/2124 VRB03KT P6SM SKC 
     FM210600 00000KT 5SM BR SKC 
     FM210900 00000KT 1/2SM FG BKN003 
     FM211200 00000KT 2SM BR BKN008 
     FM211500 04005KT P6SM SCT200 
     FM211800 04008KT P6SM SCT200
       
KROG 202337Z 2100/2124 16011KT P6SM SCT250 
     FM211200 18011KT P6SM OVC015 
     FM211500 18012KT P6SM SCT025 SCT250
       
KROW 202320Z 2100/2124 16010KT P6SM SKC 
     FM210100 22007KT P6SM SKC 
     FM211200 18009KT P6SM SKC 
     FM211900 18014G24KT P6SM SCT110
       
KRSL 202333Z 2100/2124 07010KT P6SM SKC 
     FM210900 12007KT P6SM SKC 
     FM211400 16013G19KT P6SM SKC 
     FM211700 17020G28KT P6SM FEW080
       
KRST 202320Z 2100/2124 32005KT P6SM SKC 
     FM210700 03004KT P6SM SKC 
     FM211200 10007KT P6SM FEW015 
     FM211700 15010KT P6SM SCT040
       
KRSW 202324Z 2100/2124 03006KT P6SM VCTS FEW050CB BKN100 
     FM210200 07004KT P6SM FEW050 SCT100 
     FM211600 05007KT P6SM SCT050 SCT250
       
KRUT 202340Z 2100/2124 12005KT P6SM SCT250 
     FM210800 VRB03KT 3SM BR SCT250 
     FM210900 VRB03KT 2SM BR SCT250 
     FM211200 VRB03KT 5SM BR SCT250 
     FM211300 34004KT P6SM SCT250
       
KRVS 202337Z 2100/2124 16011KT P6SM SCT250 
     FM211400 17010G16KT P6SM OVC025 
     FM211800 17014G21KT P6SM SCT250
       
KRWI 202340Z 2100/2124 VRB03KT P6SM SCT250 
     FM210700 00000KT 4SM BR FEW250 
     TEMPO 2108/2112 1SM BR SKC 
     FM211200 02006KT P6SM SCT050 SCT150
       
KRWL 202320Z 2100/2124 22020G30KT P6SM SCT080 
     FM210200 24010KT P6SM FEW100 
     FM210900 22015G25KT P6SM SKC 
     FM211700 22025G35KT P6SM SCT120
       
KRYY 202324Z 2100/2124 32006KT P6SM FEW050 FEW250 
     FM210100 00000KT P6SM FEW250 
     TEMPO 2110/2112 4SM BR 
     FM211300 01004KT P6SM FEW250 
     FM211900 02006KT P6SM VCSH SCT050